sensor_id;sensor_type;location;lat;lon;timestamp;pressure;altitude;pressure_sealevel;temperature;humidity
10618;BME280;5356;43.526;26.534;2022-11-15T00:00:24;99897.91;;;10.50;100.00
10618;BME280;5356;43.526;26.534;2022-11-15T00:02:49;99896.66;;;10.40;100.00
10618;BME280;5356;43.526;26.534;2022-11-15T00:05:15;99884.97;;;10.34;100.00
10618;BME280;5356;43.526;26.534;2022-11-15T00:07:40;99890.38;;;10.12;100.00
10618;BME280;5356;43.526;26.534;2022-11-15T00:10:06;99899.75;;;10.02;100.00
10618;BME280;5356;43.526;26.534;2022-11-15T00:12:31;99897.94;;;10.02;100.00
10618;BME280;5356;43.526;26.534;2022-11-15T00:14:57;99890.19;;;10.14;100.00
10618;BME280;5356;43.526;26.534;2022-11-15T00:17:22;99885.06;;;10.12;100.00
10618;BME280;5356;43.526;26.534;2022-11-15T00:19:47;99884.66;;;10.16;100.00
10618;BME280;5356;43.526;26.534;2022-11-15T00:22:14;99882.22;;;10.14;100.00
10618;BME280;5356;43.526;26.534;2022-11-15T00:24:39;99880.56;;;10.13;100.00
10618;BME280;5356;43.526;26.534;2022-11-15T00:27:05;99880.59;;;10.20;100.00
10618;BME280;5356;43.526;26.534;2022-11-15T00:29:30;99893.09;;;10.26;100.00
10618;BME280;5356;43.526;26.534;2022-11-15T00:31:56;99878.97;;;10.25;100.00
10618;BME280;5356;43.526;26.534;2022-11-15T00:34:21;99886.59;;;10.28;100.00
10618;BME280;5356;43.526;26.534;2022-11-15T00:36:46;99880.63;;;10.33;100.00
10618;BME280;5356;43.526;26.534;2022-11-15T00:39:12;99883.09;;;10.28;100.00
10618;BME280;5356;43.526;26.534;2022-11-15T00:41:37;99880.59;;;10.26;100.00
10618;BME280;5356;43.526;26.534;2022-11-15T00:44:03;99878.38;;;10.30;100.00
10618;BME280;5356;43.526;26.534;2022-11-15T00:46:28;99881.88;;;10.30;100.00
10618;BME280;5356;43.526;26.534;2022-11-15T00:48:54;99874.28;;;10.27;100.00
10618;BME280;5356;43.526;26.534;2022-11-15T00:51:19;99868.91;;;10.21;100.00
10618;BME280;5356;43.526;26.534;2022-11-15T00:53:45;99876.50;;;10.24;100.00
10618;BME280;5356;43.526;26.534;2022-11-15T00:56:10;99869.53;;;10.23;100.00
10618;BME280;5356;43.526;26.534;2022-11-15T00:58:36;99873.41;;;10.20;100.00
10618;BME280;5356;43.526;26.534;2022-11-15T01:01:10;99872.13;;;10.03;100.00
10618;BME280;5356;43.526;26.534;2022-11-15T01:03:37;99876.81;;;9.94;100.00
10618;BME280;5356;43.526;26.534;2022-11-15T01:06:03;99874.38;;;9.99;100.00
10618;BME280;5356;43.526;26.534;2022-11-15T01:08:28;99867.22;;;10.06;100.00
10618;BME280;5356;43.526;26.534;2022-11-15T01:10:54;99867.41;;;9.98;100.00
10618;BME280;5356;43.526;26.534;2022-11-15T01:13:19;99865.94;;;9.89;100.00
10618;BME280;5356;43.526;26.534;2022-11-15T01:15:45;99855.69;;;9.86;100.00
10618;BME280;5356;43.526;26.534;2022-11-15T01:18:10;99855.28;;;9.89;100.00
10618;BME280;5356;43.526;26.534;2022-11-15T01:20:40;99854.69;;;9.94;100.00
10618;BME280;5356;43.526;26.534;2022-11-15T01:23:07;99854.50;;;10.02;100.00
10618;BME280;5356;43.526;26.534;2022-11-15T01:25:32;99841.00;;;10.03;100.00
10618;BME280;5356;43.526;26.534;2022-11-15T01:27:58;99847.56;;;10.07;100.00
10618;BME280;5356;43.526;26.534;2022-11-15T01:30:23;99853.09;;;10.06;100.00
10618;BME280;5356;43.526;26.534;2022-11-15T01:32:48;99849.84;;;10.17;100.00
10618;BME280;5356;43.526;26.534;2022-11-15T01:35:14;99848.41;;;10.15;100.00
10618;BME280;5356;43.526;26.534;2022-11-15T01:37:39;99852.25;;;9.99;100.00
10618;BME280;5356;43.526;26.534;2022-11-15T01:40:05;99860.88;;;10.07;100.00
10618;BME280;5356;43.526;26.534;2022-11-15T01:42:31;99856.38;;;10.08;100.00
10618;BME280;5356;43.526;26.534;2022-11-15T01:44:56;99853.28;;;10.04;100.00
10618;BME280;5356;43.526;26.534;2022-11-15T01:50:02;99843.66;;;10.03;100.00
10618;BME280;5356;43.526;26.534;2022-11-15T01:52:31;99852.22;;;9.92;100.00
10618;BME280;5356;43.526;26.534;2022-11-15T01:55:11;99838.28;;;9.90;100.00
10618;BME280;5356;43.526;26.534;2022-11-15T01:57:40;99837.72;;;10.01;100.00
10618;BME280;5356;43.526;26.534;2022-11-15T02:00:08;99833.78;;;9.90;100.00
10618;BME280;5356;43.526;26.534;2022-11-15T02:02:36;99834.19;;;9.87;100.00
10618;BME280;5356;43.526;26.534;2022-11-15T02:05:02;99838.91;;;9.92;100.00
10618;BME280;5356;43.526;26.534;2022-11-15T02:07:29;99836.25;;;9.92;100.00
10618;BME280;5356;43.526;26.534;2022-11-15T02:09:58;99841.34;;;9.87;100.00
10618;BME280;5356;43.526;26.534;2022-11-15T02:12:26;99837.00;;;9.73;100.00
10618;BME280;5356;43.526;26.534;2022-11-15T02:14:53;99839.41;;;9.67;100.00
10618;BME280;5356;43.526;26.534;2022-11-15T02:22:58;99822.31;;;9.42;100.00
10618;BME280;5356;43.526;26.534;2022-11-15T02:30:55;99826.34;;;9.31;100.00
10618;BME280;5356;43.526;26.534;2022-11-15T02:36:15;99821.31;;;9.43;100.00
10618;BME280;5356;43.526;26.534;2022-11-15T02:39:02;99821.50;;;9.48;100.00
10618;BME280;5356;43.526;26.534;2022-11-15T02:41:41;99830.13;;;9.50;100.00
10618;BME280;5356;43.526;26.534;2022-11-15T02:44:23;99819.66;;;9.42;100.00
10618;BME280;5356;43.526;26.534;2022-11-15T02:46:53;99815.34;;;9.41;100.00
10618;BME280;5356;43.526;26.534;2022-11-15T02:49:46;99810.22;;;9.39;100.00
10618;BME280;5356;43.526;26.534;2022-11-15T02:52:16;99809.63;;;9.37;100.00
10618;BME280;5356;43.526;26.534;2022-11-15T02:54:42;99815.13;;;9.36;100.00
10618;BME280;5356;43.526;26.534;2022-11-15T02:57:14;99803.03;;;9.33;100.00
10618;BME280;5356;43.526;26.534;2022-11-15T03:00:09;99807.78;;;9.38;100.00
10618;BME280;5356;43.526;26.534;2022-11-15T03:02:46;99806.34;;;9.42;100.00
10618;BME280;5356;43.526;26.534;2022-11-15T03:15:44;99800.84;;;9.43;100.00
10618;BME280;5356;43.526;26.534;2022-11-15T03:18:21;99808.22;;;9.48;100.00
10618;BME280;5356;43.526;26.534;2022-11-15T03:20:50;99796.16;;;9.46;100.00
10618;BME280;5356;43.526;26.534;2022-11-15T03:23:17;99797.97;;;9.45;100.00
10618;BME280;5356;43.526;26.534;2022-11-15T03:25:48;99799.59;;;9.39;100.00
10618;BME280;5356;43.526;26.534;2022-11-15T03:28:29;99801.91;;;9.49;100.00
10618;BME280;5356;43.526;26.534;2022-11-15T03:30:59;99786.94;;;9.48;100.00
10618;BME280;5356;43.526;26.534;2022-11-15T03:33:27;99789.41;;;9.43;100.00
10618;BME280;5356;43.526;26.534;2022-11-15T03:35:55;99777.09;;;9.42;100.00
10618;BME280;5356;43.526;26.534;2022-11-15T03:38:25;99773.47;;;9.50;100.00
10618;BME280;5356;43.526;26.534;2022-11-15T03:40:58;99774.94;;;9.59;100.00
10618;BME280;5356;43.526;26.534;2022-11-15T03:43:48;99775.38;;;9.62;100.00
10618;BME280;5356;43.526;26.534;2022-11-15T03:49:34;99760.00;;;9.64;100.00
10618;BME280;5356;43.526;26.534;2022-11-15T03:52:02;99765.34;;;9.64;100.00
10618;BME280;5356;43.526;26.534;2022-11-15T03:54:28;99760.63;;;9.66;100.00
10618;BME280;5356;43.526;26.534;2022-11-15T03:56:54;99764.13;;;9.74;100.00
10618;BME280;5356;43.526;26.534;2022-11-15T03:59:19;99763.13;;;9.75;100.00
10618;BME280;5356;43.526;26.534;2022-11-15T04:01:45;99756.34;;;9.65;100.00
10618;BME280;5356;43.526;26.534;2022-11-15T04:04:11;99757.56;;;9.70;100.00
10618;BME280;5356;43.526;26.534;2022-11-15T04:06:36;99755.97;;;9.75;100.00
10618;BME280;5356;43.526;26.534;2022-11-15T04:09:02;99760.47;;;9.75;100.00
10618;BME280;5356;43.526;26.534;2022-11-15T04:11:27;99753.88;;;9.71;100.00
10618;BME280;5356;43.526;26.534;2022-11-15T04:13:53;99754.91;;;9.63;100.00
10618;BME280;5356;43.526;26.534;2022-11-15T04:16:18;99753.84;;;9.57;100.00
10618;BME280;5356;43.526;26.534;2022-11-15T04:18:44;99766.34;;;9.57;100.00
10618;BME280;5356;43.526;26.534;2022-11-15T04:21:09;99757.72;;;9.55;100.00
10618;BME280;5356;43.526;26.534;2022-11-15T04:23:53;99753.63;;;9.52;100.00
10618;BME280;5356;43.526;26.534;2022-11-15T04:26:31;99753.00;;;9.50;100.00
10618;BME280;5356;43.526;26.534;2022-11-15T04:28:56;99754.84;;;9.50;100.00
10618;BME280;5356;43.526;26.534;2022-11-15T04:31:40;99755.91;;;9.55;100.00
10618;BME280;5356;43.526;26.534;2022-11-15T04:34:06;99756.75;;;9.62;100.00
10618;BME280;5356;43.526;26.534;2022-11-15T04:36:31;99754.69;;;9.64;100.00
10618;BME280;5356;43.526;26.534;2022-11-15T04:39:15;99758.59;;;9.69;100.00
10618;BME280;5356;43.526;26.534;2022-11-15T04:41:40;99754.75;;;9.78;100.00
10618;BME280;5356;43.526;26.534;2022-11-15T04:44:06;99749.03;;;9.81;100.00
10618;BME280;5356;43.526;26.534;2022-11-15T04:46:32;99745.94;;;9.84;100.00
10618;BME280;5356;43.526;26.534;2022-11-15T04:48:57;99743.91;;;9.86;100.00
10618;BME280;5356;43.526;26.534;2022-11-15T04:51:23;99739.59;;;9.78;100.00
10618;BME280;5356;43.526;26.534;2022-11-15T04:53:48;99745.72;;;9.79;100.00
10618;BME280;5356;43.526;26.534;2022-11-15T04:56:14;99751.28;;;9.84;100.00
10618;BME280;5356;43.526;26.534;2022-11-15T04:58:39;99746.97;;;9.83;100.00
10618;BME280;5356;43.526;26.534;2022-11-15T05:01:12;99748.84;;;9.89;100.00
10618;BME280;5356;43.526;26.534;2022-11-15T05:03:40;99737.38;;;9.95;100.00
10618;BME280;5356;43.526;26.534;2022-11-15T05:06:37;99749.28;;;9.99;100.00
10618;BME280;5356;43.526;26.534;2022-11-15T05:09:03;99755.19;;;10.01;100.00
10618;BME280;5356;43.526;26.534;2022-11-15T05:11:29;99745.00;;;10.05;100.00
10618;BME280;5356;43.526;26.534;2022-11-15T05:13:54;99745.19;;;10.03;100.00
10618;BME280;5356;43.526;26.534;2022-11-15T05:16:20;99747.66;;;10.05;100.00
10618;BME280;5356;43.526;26.534;2022-11-15T05:18:45;99749.88;;;10.01;100.00
10618;BME280;5356;43.526;26.534;2022-11-15T05:21:13;99742.91;;;10.00;100.00
10618;BME280;5356;43.526;26.534;2022-11-15T05:23:40;99746.00;;;9.97;100.00
10618;BME280;5356;43.526;26.534;2022-11-15T05:26:07;99743.09;;;9.92;100.00
10618;BME280;5356;43.526;26.534;2022-11-15T05:28:32;99743.91;;;9.86;100.00
10618;BME280;5356;43.526;26.534;2022-11-15T05:33:27;99740.03;;;9.95;100.00
10618;BME280;5356;43.526;26.534;2022-11-15T05:36:02;99740.25;;;10.00;100.00
10618;BME280;5356;43.526;26.534;2022-11-15T05:38:29;99741.28;;;10.12;100.00
10618;BME280;5356;43.526;26.534;2022-11-15T05:40:55;99740.06;;;10.15;100.00
10618;BME280;5356;43.526;26.534;2022-11-15T05:43:21;99744.19;;;10.18;100.00
10618;BME280;5356;43.526;26.534;2022-11-15T05:45:46;99742.97;;;10.14;100.00
10618;BME280;5356;43.526;26.534;2022-11-15T05:48:12;99743.75;;;10.21;100.00
10618;BME280;5356;43.526;26.534;2022-11-15T05:50:41;99740.91;;;10.22;100.00
10618;BME280;5356;43.526;26.534;2022-11-15T05:53:09;99742.13;;;10.20;100.00
10618;BME280;5356;43.526;26.534;2022-11-15T05:55:38;99743.34;;;10.24;100.00
10618;BME280;5356;43.526;26.534;2022-11-15T05:58:04;99747.47;;;10.26;100.00
10618;BME280;5356;43.526;26.534;2022-11-15T06:00:29;99741.97;;;10.28;100.00
10618;BME280;5356;43.526;26.534;2022-11-15T06:02:55;99746.66;;;10.32;100.00
10618;BME280;5356;43.526;26.534;2022-11-15T06:05:20;99747.72;;;10.31;100.00
10618;BME280;5356;43.526;26.534;2022-11-15T06:07:45;99745.44;;;10.28;100.00
10618;BME280;5356;43.526;26.534;2022-11-15T06:10:11;99746.25;;;10.29;100.00
10618;BME280;5356;43.526;26.534;2022-11-15T06:12:36;99746.03;;;10.17;100.00
10618;BME280;5356;43.526;26.534;2022-11-15T06:15:02;99750.31;;;10.18;100.00
10618;BME280;5356;43.526;26.534;2022-11-15T06:17:28;99748.06;;;10.22;100.00
10618;BME280;5356;43.526;26.534;2022-11-15T06:19:54;99747.31;;;10.28;100.00
10618;BME280;5356;43.526;26.534;2022-11-15T06:22:19;99753.19;;;10.23;100.00
10618;BME280;5356;43.526;26.534;2022-11-15T06:24:45;99746.25;;;10.29;100.00
10618;BME280;5356;43.526;26.534;2022-11-15T06:27:11;99740.53;;;10.32;100.00
10618;BME280;5356;43.526;26.534;2022-11-15T06:29:36;99742.38;;;10.31;100.00
10618;BME280;5356;43.526;26.534;2022-11-15T06:32:02;99745.63;;;10.27;100.00
10618;BME280;5356;43.526;26.534;2022-11-15T06:34:27;99749.72;;;10.23;100.00
10618;BME280;5356;43.526;26.534;2022-11-15T06:36:53;99757.94;;;10.28;100.00
10618;BME280;5356;43.526;26.534;2022-11-15T06:39:18;99758.34;;;10.31;100.00
10618;BME280;5356;43.526;26.534;2022-11-15T06:41:44;99762.88;;;10.31;100.00
10618;BME280;5356;43.526;26.534;2022-11-15T06:44:09;99763.88;;;10.30;100.00
10618;BME280;5356;43.526;26.534;2022-11-15T06:46:34;99758.97;;;10.33;100.00
10618;BME280;5356;43.526;26.534;2022-11-15T06:49:01;99754.88;;;10.38;100.00
10618;BME280;5356;43.526;26.534;2022-11-15T06:51:27;99765.75;;;10.36;100.00
10618;BME280;5356;43.526;26.534;2022-11-15T06:53:52;99758.34;;;10.31;100.00
10618;BME280;5356;43.526;26.534;2022-11-15T06:56:17;99768.97;;;10.25;100.00
10618;BME280;5356;43.526;26.534;2022-11-15T06:58:43;99756.09;;;10.28;100.00
10618;BME280;5356;43.526;26.534;2022-11-15T07:01:10;99759.78;;;10.34;100.00
10618;BME280;5356;43.526;26.534;2022-11-15T07:03:38;99763.69;;;10.38;100.00
10618;BME280;5356;43.526;26.534;2022-11-15T07:06:04;99752.03;;;10.39;100.00
10618;BME280;5356;43.526;26.534;2022-11-15T07:08:30;99751.63;;;10.42;100.00
10618;BME280;5356;43.526;26.534;2022-11-15T07:11:00;99751.81;;;10.41;100.00
10618;BME280;5356;43.526;26.534;2022-11-15T07:13:28;99756.31;;;10.47;100.00
10618;BME280;5356;43.526;26.534;2022-11-15T07:15:54;99748.13;;;10.48;100.00
10618;BME280;5356;43.526;26.534;2022-11-15T07:18:19;99757.75;;;10.49;100.00
10618;BME280;5356;43.526;26.534;2022-11-15T07:20:45;99747.50;;;10.46;100.00
10618;BME280;5356;43.526;26.534;2022-11-15T07:23:10;99747.91;;;10.37;100.00
10618;BME280;5356;43.526;26.534;2022-11-15T07:25:36;99751.19;;;10.39;100.00
10618;BME280;5356;43.526;26.534;2022-11-15T07:28:02;99745.84;;;10.39;100.00
10618;BME280;5356;43.526;26.534;2022-11-15T07:30:28;99749.56;;;10.31;100.00
10618;BME280;5356;43.526;26.534;2022-11-15T07:35:20;99743.81;;;10.41;100.00
10618;BME280;5356;43.526;26.534;2022-11-15T07:37:53;99747.09;;;10.49;100.00
10618;BME280;5356;43.526;26.534;2022-11-15T07:40:19;99743.41;;;10.50;100.00
10618;BME280;5356;43.526;26.534;2022-11-15T07:42:44;99737.25;;;10.56;100.00
10618;BME280;5356;43.526;26.534;2022-11-15T07:45:20;99731.09;;;10.63;100.00
10618;BME280;5356;43.526;26.534;2022-11-15T07:47:46;99730.69;;;10.66;100.00
10618;BME280;5356;43.526;26.534;2022-11-15T07:50:12;99733.16;;;10.74;100.00
10618;BME280;5356;43.526;26.534;2022-11-15T07:52:38;99730.47;;;10.74;100.00
10618;BME280;5356;43.526;26.534;2022-11-15T07:55:03;99732.31;;;10.80;100.00
10618;BME280;5356;43.526;26.534;2022-11-15T07:57:29;99738.44;;;10.81;100.00
10618;BME280;5356;43.526;26.534;2022-11-15T07:59:55;99729.25;;;10.70;100.00
10618;BME280;5356;43.526;26.534;2022-11-15T08:02:20;99735.19;;;10.78;100.00
10618;BME280;5356;43.526;26.534;2022-11-15T08:04:46;99730.69;;;10.79;100.00
10618;BME280;5356;43.526;26.534;2022-11-15T08:07:12;99736.00;;;10.79;100.00
10618;BME280;5356;43.526;26.534;2022-11-15T08:09:37;99739.25;;;10.81;100.00
10618;BME280;5356;43.526;26.534;2022-11-15T08:12:03;99735.41;;;10.77;100.00
10618;BME280;5356;43.526;26.534;2022-11-15T08:14:28;99735.19;;;10.72;100.00
10618;BME280;5356;43.526;26.534;2022-11-15T08:16:57;99730.50;;;10.67;100.00
10618;BME280;5356;43.526;26.534;2022-11-15T08:19:22;99729.84;;;10.72;100.00
10618;BME280;5356;43.526;26.534;2022-11-15T08:21:47;99730.47;;;10.81;100.00
10618;BME280;5356;43.526;26.534;2022-11-15T08:24:13;99726.16;;;10.86;100.00
10618;BME280;5356;43.526;26.534;2022-11-15T08:26:39;99725.53;;;10.91;100.00
10618;BME280;5356;43.526;26.534;2022-11-15T08:29:05;99724.88;;;10.95;100.00
10618;BME280;5356;43.526;26.534;2022-11-15T08:31:31;99721.63;;;10.87;100.00
10618;BME280;5356;43.526;26.534;2022-11-15T08:33:56;99725.13;;;10.87;100.00
10618;BME280;5356;43.526;26.534;2022-11-15T08:36:22;99719.59;;;10.89;100.00
10618;BME280;5356;43.526;26.534;2022-11-15T08:38:48;99718.13;;;10.99;100.00
10618;BME280;5356;43.526;26.534;2022-11-15T08:41:34;99711.94;;;11.06;100.00
10618;BME280;5356;43.526;26.534;2022-11-15T08:44:01;99711.31;;;11.17;100.00
10618;BME280;5356;43.526;26.534;2022-11-15T08:46:27;99711.69;;;11.27;100.00
10618;BME280;5356;43.526;26.534;2022-11-15T08:48:52;99710.81;;;11.40;100.00
10618;BME280;5356;43.526;26.534;2022-11-15T08:51:18;99694.16;;;11.44;100.00
10618;BME280;5356;43.526;26.534;2022-11-15T08:53:43;99696.19;;;11.49;100.00
10618;BME280;5356;43.526;26.534;2022-11-15T08:56:10;99690.66;;;11.51;100.00
10618;BME280;5356;43.526;26.534;2022-11-15T08:58:36;99694.34;;;11.50;100.00
10618;BME280;5356;43.526;26.534;2022-11-15T09:01:03;99694.94;;;11.52;100.00
10618;BME280;5356;43.526;26.534;2022-11-15T09:03:29;99682.81;;;11.56;100.00
10618;BME280;5356;43.526;26.534;2022-11-15T09:05:59;99684.25;;;11.58;100.00
10618;BME280;5356;43.526;26.534;2022-11-15T09:08:28;99680.34;;;11.54;100.00
10618;BME280;5356;43.526;26.534;2022-11-15T09:10:54;99678.09;;;11.58;100.00
10618;BME280;5356;43.526;26.534;2022-11-15T09:13:19;99676.25;;;11.58;100.00
10618;BME280;5356;43.526;26.534;2022-11-15T09:15:45;99667.25;;;11.53;100.00
10618;BME280;5356;43.526;26.534;2022-11-15T09:18:10;99656.94;;;11.56;100.00
10618;BME280;5356;43.526;26.534;2022-11-15T09:20:36;99655.75;;;11.52;100.00
10618;BME280;5356;43.526;26.534;2022-11-15T09:23:02;99651.00;;;11.54;100.00
10618;BME280;5356;43.526;26.534;2022-11-15T09:25:28;99649.38;;;11.53;100.00
10618;BME280;5356;43.526;26.534;2022-11-15T09:27:54;99649.94;;;11.62;100.00
10618;BME280;5356;43.526;26.534;2022-11-15T09:30:20;99640.03;;;11.69;100.00
10618;BME280;5356;43.526;26.534;2022-11-15T09:32:45;99647.19;;;11.75;100.00
10618;BME280;5356;43.526;26.534;2022-11-15T09:35:11;99638.53;;;11.80;100.00
10618;BME280;5356;43.526;26.534;2022-11-15T09:37:36;99629.97;;;11.71;100.00
10618;BME280;5356;43.526;26.534;2022-11-15T09:40:03;99644.28;;;11.77;100.00
10618;BME280;5356;43.526;26.534;2022-11-15T09:45:23;99638.41;;;11.68;100.00
10618;BME280;5356;43.526;26.534;2022-11-15T09:48:18;99639.75;;;11.84;100.00
10618;BME280;5356;43.526;26.534;2022-11-15T09:50:51;99631.28;;;11.94;100.00
10618;BME280;5356;43.526;26.534;2022-11-15T09:53:25;99633.22;;;12.05;100.00
10618;BME280;5356;43.526;26.534;2022-11-15T09:56:19;99630.28;;;12.13;100.00
10618;BME280;5356;43.526;26.534;2022-11-15T10:04:23;99612.56;;;11.94;100.00
10618;BME280;5356;43.526;26.534;2022-11-15T10:12:18;99598.88;;;11.83;100.00
10618;BME280;5356;43.526;26.534;2022-11-15T10:14:45;99596.06;;;11.78;100.00
10618;BME280;5356;43.526;26.534;2022-11-15T10:20:19;99579.25;;;11.71;100.00
10618;BME280;5356;43.526;26.534;2022-11-15T10:22:48;99581.91;;;11.71;100.00
10618;BME280;5356;43.526;26.534;2022-11-15T10:25:25;99576.81;;;11.69;100.00
10618;BME280;5356;43.526;26.534;2022-11-15T10:27:55;99572.19;;;11.83;100.00
10618;BME280;5356;43.526;26.534;2022-11-15T10:30:22;99566.88;;;11.77;100.00
10618;BME280;5356;43.526;26.534;2022-11-15T10:32:48;99563.13;;;11.84;100.00
10618;BME280;5356;43.526;26.534;2022-11-15T10:35:25;99557.56;;;11.93;100.00
10618;BME280;5356;43.526;26.534;2022-11-15T10:37:51;99560.13;;;12.06;100.00
10618;BME280;5356;43.526;26.534;2022-11-15T10:40:22;99556.47;;;12.00;100.00
10618;BME280;5356;43.526;26.534;2022-11-15T10:43:05;99546.38;;;12.02;100.00
10618;BME280;5356;43.526;26.534;2022-11-15T10:45:32;99544.22;;;11.93;100.00
10618;BME280;5356;43.526;26.534;2022-11-15T10:50:41;99537.91;;;11.87;100.00
10618;BME280;5356;43.526;26.534;2022-11-15T10:53:31;99535.31;;;11.99;100.00
10618;BME280;5356;43.526;26.534;2022-11-15T10:56:09;99532.66;;;11.99;100.00
10618;BME280;5356;43.526;26.534;2022-11-15T10:58:42;99534.22;;;12.06;100.00
10618;BME280;5356;43.526;26.534;2022-11-15T11:03:43;99530.59;;;12.19;100.00
10618;BME280;5356;43.526;26.534;2022-11-15T11:06:17;99528.19;;;12.11;100.00
10618;BME280;5356;43.526;26.534;2022-11-15T11:09:03;99517.38;;;12.06;100.00
10618;BME280;5356;43.526;26.534;2022-11-15T11:11:48;99519.50;;;11.97;100.00
10618;BME280;5356;43.526;26.534;2022-11-15T11:17:17;99510.84;;;12.02;100.00
10618;BME280;5356;43.526;26.534;2022-11-15T11:22:32;99499.78;;;12.17;100.00
10618;BME280;5356;43.526;26.534;2022-11-15T11:30:06;99492.53;;;12.24;100.00
10618;BME280;5356;43.526;26.534;2022-11-15T11:33:04;99483.72;;;12.23;100.00
10618;BME280;5356;43.526;26.534;2022-11-15T11:40:39;99478.88;;;12.32;100.00
10618;BME280;5356;43.526;26.534;2022-11-15T11:48:46;99463.88;;;12.31;100.00
10618;BME280;5356;43.526;26.534;2022-11-15T11:51:24;99462.91;;;12.25;100.00
10618;BME280;5356;43.526;26.534;2022-11-15T11:54:00;99457.97;;;12.29;100.00
10618;BME280;5356;43.526;26.534;2022-11-15T11:56:31;99457.97;;;12.29;100.00
10618;BME280;5356;43.526;26.534;2022-11-15T11:59:05;99447.84;;;12.31;100.00
10618;BME280;5356;43.526;26.534;2022-11-15T12:01:37;99457.31;;;12.15;100.00
10618;BME280;5356;43.526;26.534;2022-11-15T12:04:35;99447.28;;;12.10;100.00
10618;BME280;5356;43.526;26.534;2022-11-15T12:07:12;99433.41;;;12.20;100.00
10618;BME280;5356;43.526;26.534;2022-11-15T12:09:44;99438.22;;;12.30;100.00
10618;BME280;5356;43.526;26.534;2022-11-15T12:12:27;99433.31;;;12.27;100.00
10618;BME280;5356;43.526;26.534;2022-11-15T12:15:00;99433.09;;;12.28;100.00
10618;BME280;5356;43.526;26.534;2022-11-15T12:17:30;99427.16;;;12.26;100.00
10618;BME280;5356;43.526;26.534;2022-11-15T12:20:03;99431.09;;;12.24;100.00
10618;BME280;5356;43.526;26.534;2022-11-15T12:22:42;99431.03;;;12.12;100.00
10618;BME280;5356;43.526;26.534;2022-11-15T12:25:17;99425.25;;;11.97;100.00
10618;BME280;5356;43.526;26.534;2022-11-15T12:28:15;99416.34;;;12.03;100.00
10618;BME280;5356;43.526;26.534;2022-11-15T12:30:47;99403.50;;;12.11;100.00
10618;BME280;5356;43.526;26.534;2022-11-15T12:33:35;99410.25;;;12.14;100.00
10618;BME280;5356;43.526;26.534;2022-11-15T12:36:08;99408.84;;;12.11;100.00
10618;BME280;5356;43.526;26.534;2022-11-15T12:38:54;99404.19;;;12.07;100.00
10618;BME280;5356;43.526;26.534;2022-11-15T12:41:23;99413.25;;;12.06;100.00
10618;BME280;5356;43.526;26.534;2022-11-15T12:43:49;99408.47;;;12.08;100.00
10618;BME280;5356;43.526;26.534;2022-11-15T12:49:03;99419.00;;;12.03;100.00
10618;BME280;5356;43.526;26.534;2022-11-15T13:02:39;99404.22;;;11.82;100.00
10618;BME280;5356;43.526;26.534;2022-11-15T13:22:39;99378.84;;;11.98;100.00
10618;BME280;5356;43.526;26.534;2022-11-15T13:27:48;99373.91;;;12.13;100.00
10618;BME280;5356;43.526;26.534;2022-11-15T13:30:23;99374.66;;;12.20;100.00
10618;BME280;5356;43.526;26.534;2022-11-15T13:32:49;99374.06;;;12.18;100.00
10618;BME280;5356;43.526;26.534;2022-11-15T13:35:24;99371.44;;;12.11;100.00
10618;BME280;5356;43.526;26.534;2022-11-15T13:37:50;99367.97;;;12.11;100.00
10618;BME280;5356;43.526;26.534;2022-11-15T13:40:29;99364.72;;;12.09;100.00
10618;BME280;5356;43.526;26.534;2022-11-15T13:42:58;99364.13;;;12.07;100.00
10618;BME280;5356;43.526;26.534;2022-11-15T13:45:24;99361.22;;;12.08;100.00
10618;BME280;5356;43.526;26.534;2022-11-15T13:47:57;99354.63;;;12.11;100.00
10618;BME280;5356;43.526;26.534;2022-11-15T13:50:31;99360.34;;;12.15;100.00
10618;BME280;5356;43.526;26.534;2022-11-15T13:53:00;99360.66;;;12.06;100.00
10618;BME280;5356;43.526;26.534;2022-11-15T13:55:27;99355.97;;;12.02;100.00
10618;BME280;5356;43.526;26.534;2022-11-15T13:57:59;99348.88;;;11.96;100.00
10618;BME280;5356;43.526;26.534;2022-11-15T14:00:44;99342.03;;;12.00;100.00
10618;BME280;5356;43.526;26.534;2022-11-15T14:03:25;99343.69;;;12.01;100.00
10618;BME280;5356;43.526;26.534;2022-11-15T14:08:38;99331.34;;;12.00;100.00
10618;BME280;5356;43.526;26.534;2022-11-15T14:11:17;99329.72;;;11.99;100.00
10618;BME280;5356;43.526;26.534;2022-11-15T14:19:00;99318.16;;;12.05;100.00
10618;BME280;5356;43.526;26.534;2022-11-15T14:21:25;99318.38;;;12.03;100.00
10618;BME280;5356;43.526;26.534;2022-11-15T14:23:51;99316.75;;;12.02;100.00
10618;BME280;5356;43.526;26.534;2022-11-15T14:26:33;99318.94;;;12.05;100.00
10618;BME280;5356;43.526;26.534;2022-11-15T14:29:25;99312.81;;;12.05;100.00
10618;BME280;5356;43.526;26.534;2022-11-15T14:31:50;99310.72;;;12.07;100.00
10618;BME280;5356;43.526;26.534;2022-11-15T14:34:16;99301.66;;;12.08;100.00
10618;BME280;5356;43.526;26.534;2022-11-15T14:36:41;99290.78;;;12.09;100.00
10618;BME280;5356;43.526;26.534;2022-11-15T14:39:07;99293.19;;;12.11;100.00
10618;BME280;5356;43.526;26.534;2022-11-15T14:41:36;99291.22;;;12.06;100.00
10618;BME280;5356;43.526;26.534;2022-11-15T14:44:03;99289.38;;;12.07;100.00
10618;BME280;5356;43.526;26.534;2022-11-15T14:46:29;99279.50;;;12.07;100.00
10618;BME280;5356;43.526;26.534;2022-11-15T14:48:55;99279.00;;;11.99;100.00
10618;BME280;5356;43.526;26.534;2022-11-15T14:51:20;99283.75;;;11.97;100.00
10618;BME280;5356;43.526;26.534;2022-11-15T14:53:46;99282.78;;;11.91;100.00
10618;BME280;5356;43.526;26.534;2022-11-15T14:56:13;99279.78;;;11.87;100.00
10618;BME280;5356;43.526;26.534;2022-11-15T14:58:39;99279.78;;;11.87;100.00
10618;BME280;5356;43.526;26.534;2022-11-15T15:01:15;99275.25;;;11.88;100.00
10618;BME280;5356;43.526;26.534;2022-11-15T15:03:41;99278.56;;;11.83;100.00